Time;durP1;ratioP1;P1;durP2;ratioP2;P2;SDS_P1;SDS_P2;PMS_P1;PMS_P2;Temp;Humidity;BMP_temperature;BMP_pressure;BME280_temperature;BME280_humidity;BME280_pressure;Samples;Min_cycle;Max_cycle;Signal;HPM_P1;HPM_P2
2023/04/06 00:02:24;;;;;;;3.88;2.22;;;19.50;82.30;;;;;;5099941;28;20019;-56
2023/04/06 00:04:50;;;;;;;4.97;2.47;;;19.50;82.30;;;;;;5100432;28;20634;-55
2023/04/06 00:07:15;;;;;;;2.45;2.15;;;19.50;82.30;;;;;;5104504;28;20482;-55
2023/04/06 00:09:41;;;;;;;2.33;2.00;;;19.50;82.20;;;;;;5101249;28;20028;-55
2023/04/06 00:12:06;;;;;;;3.78;2.20;;;19.50;82.20;;;;;;5087148;28;20022;-56
2023/04/06 00:14:32;;;;;;;3.72;2.45;;;19.50;82.10;;;;;;5103320;28;20695;-53
2023/04/06 00:16:57;;;;;;;2.00;1.88;;;19.40;82.10;;;;;;5083332;28;20119;-55
2023/04/06 00:19:23;;;;;;;3.72;2.25;;;19.50;82.20;;;;;;5083835;28;20110;-55
2023/04/06 00:21:48;;;;;;;3.08;2.13;;;19.50;82.10;;;;;;5085953;28;20095;-55
2023/04/06 00:24:14;;;;;;;2.97;1.90;;;19.50;82.10;;;;;;5082024;28;20025;-55
2023/04/06 00:26:40;;;;;;;2.53;2.15;;;19.50;82.10;;;;;;5081700;28;20043;-55
2023/04/06 00:29:05;;;;;;;2.65;2.17;;;19.50;82.00;;;;;;5083648;28;20036;-55
2023/04/06 00:31:31;;;;;;;2.88;2.08;;;19.40;82.00;;;;;;5085648;28;20020;-55
2023/04/06 00:33:57;;;;;;;2.47;1.98;;;19.40;81.90;;;;;;5081659;28;20490;-55
2023/04/06 00:36:23;;;;;;;3.17;2.20;;;19.40;81.90;;;;;;5079746;28;20028;-55
2023/04/06 00:38:48;;;;;;;3.78;2.05;;;19.40;81.90;;;;;;5084764;28;20381;-56
2023/04/06 00:41:14;;;;;;;2.70;2.00;;;19.10;81.70;;;;;;5085116;28;20510;-55
2023/04/06 00:43:39;;;;;;;2.45;2.15;;;19.40;81.70;;;;;;5085413;28;20111;-55
2023/04/06 00:46:05;;;;;;;2.50;1.88;;;19.40;81.80;;;;;;5072795;28;20038;-56
2023/04/06 00:48:31;;;;;;;2.58;1.98;;;19.40;81.90;;;;;;5088246;28;20024;-55
2023/04/06 00:50:57;;;;;;;2.35;2.15;;;19.40;81.80;;;;;;5083425;28;20470;-55
2023/04/06 00:53:23;;;;;;;2.25;1.88;;;19.40;81.60;;;;;;5081639;28;20027;-56
2023/04/06 00:55:48;;;;;;;2.40;1.77;;;19.40;81.60;;;;;;5085479;28;20020;-55
2023/04/06 00:58:14;;;;;;;2.80;2.28;;;19.40;81.60;;;;;;5090472;28;20039;-55
2023/04/06 01:00:40;;;;;;;3.30;1.88;;;19.30;81.50;;;;;;5091374;28;20646;-55
2023/04/06 01:03:06;;;;;;;4.38;2.33;;;19.30;81.50;;;;;;5085921;28;20066;-55
2023/04/06 01:05:34;;;;;;;2.63;2.00;;;19.30;81.40;;;;;;5085309;28;20028;-55
2023/04/06 01:08:00;;;;;;;2.38;2.15;;;19.30;81.40;;;;;;5067337;28;20043;-55
2023/04/06 01:10:26;;;;;;;3.42;1.80;;;19.30;81.40;;;;;;5087644;28;20024;-56
2023/04/06 01:12:52;;;;;;;3.45;1.92;;;19.30;81.40;;;;;;5083753;28;20390;-56
2023/04/06 01:15:17;;;;;;;5.22;2.05;;;19.30;81.30;;;;;;5101375;28;20030;-55
2023/04/06 01:17:43;;;;;;;2.20;1.75;;;19.30;81.20;;;;;;5087261;28;20049;-55
2023/04/06 01:20:08;;;;;;;2.75;1.92;;;19.30;81.40;;;;;;5101103;28;20535;-55
2023/04/06 01:22:34;;;;;;;2.15;1.80;;;19.30;81.20;;;;;;5101456;28;20049;-55
2023/04/06 01:24:59;;;;;;;2.35;1.83;;;19.30;81.30;;;;;;5100639;28;20466;-55
2023/04/06 01:27:26;;;;;;;3.90;1.95;;;19.30;81.20;;;;;;5103043;28;20608;-55
2023/04/06 01:29:51;;;;;;;3.58;1.92;;;18.80;80.90;;;;;;5104902;28;20027;-55
2023/04/06 01:32:17;;;;;;;3.92;2.40;;;19.30;81.20;;;;;;5083326;28;20116;-55
2023/04/06 01:34:42;;;;;;;2.38;1.60;;;19.30;81.20;;;;;;5084788;28;20115;-55
2023/04/06 01:37:08;;;;;;;1.88;1.65;;;19.20;81.10;;;;;;5080703;28;20025;-55
2023/04/06 01:39:33;;;;;;;3.60;1.98;;;19.20;81.80;;;;;;5082853;28;20069;-55
2023/04/06 01:41:59;;;;;;;2.95;2.17;;;19.20;81.10;;;;;;5081285;28;20069;-55
2023/04/06 01:44:25;;;;;;;3.90;1.90;;;19.20;80.90;;;;;;5082705;28;20024;-55
2023/04/06 01:46:50;;;;;;;3.33;1.88;;;19.20;81.00;;;;;;5085136;28;20149;-56
2023/04/06 01:49:16;;;;;;;3.92;2.15;;;19.20;81.00;;;;;;5083097;28;20451;-56
2023/04/06 01:51:41;;;;;;;2.55;1.75;;;19.20;81.00;;;;;;5085880;28;20031;-56
2023/04/06 01:54:07;;;;;;;2.33;2.13;;;19.20;81.00;;;;;;5082412;28;20031;-56
2023/04/06 01:56:55;;;;;;;2.17;1.98;;;19.20;80.80;;;;;;5082745;28;20047;-57
2023/04/06 01:59:21;;;;;;;1.80;1.70;;;19.20;80.90;;;;;;5064525;28;20028;-57
2023/04/06 02:01:46;;;;;;;5.03;2.30;;;19.20;80.90;;;;;;5088268;28;20440;-56
2023/04/06 02:04:13;;;;;;;2.90;1.67;;;19.20;81.00;;;;;;5086227;28;20031;-56
2023/04/06 02:06:39;;;;;;;2.35;1.88;;;19.10;80.80;;;;;;5088463;28;20118;-56
2023/04/06 02:09:05;;;;;;;2.47;2.08;;;19.20;80.90;;;;;;5084399;28;20066;-56
2023/04/06 02:11:30;;;;;;;2.90;2.03;;;19.10;80.70;;;;;;5084417;28;20024;-56
2023/04/06 02:13:56;;;;;;;3.13;1.90;;;19.10;80.80;;;;;;5087710;28;20432;-56
2023/04/06 02:16:21;;;;;;;2.08;1.60;;;19.10;80.70;;;;;;5083968;28;20211;-57
2023/04/06 02:18:47;;;;;;;2.10;1.63;;;19.10;80.60;;;;;;5081731;28;20052;-57
2023/04/06 02:21:12;;;;;;;3.65;2.00;;;19.10;80.70;;;;;;5078892;28;20028;-56
2023/04/06 02:23:38;;;;;;;4.75;1.77;;;19.10;80.70;;;;;;5074123;28;20028;-56
2023/04/06 02:26:04;;;;;;;2.60;1.85;;;19.10;80.50;;;;;;5085994;28;20243;-57
2023/04/06 02:28:29;;;;;;;1.50;1.33;;;19.10;80.70;;;;;;5077363;28;20047;-56
2023/04/06 02:30:55;;;;;;;2.03;1.67;;;19.10;80.60;;;;;;5086936;28;20052;-57
2023/04/06 02:33:20;;;;;;;2.97;1.98;;;19.10;80.60;;;;;;5084515;28;20394;-56
2023/04/06 02:35:46;;;;;;;3.38;2.15;;;19.10;80.50;;;;;;5085539;28;20497;-56
2023/04/06 02:38:12;;;;;;;2.28;1.92;;;19.10;80.50;;;;;;5081183;28;20039;-56
2023/04/06 02:40:37;;;;;;;2.92;1.73;;;19.10;80.60;;;;;;5085140;28;20036;-57
2023/04/06 02:43:03;;;;;;;3.55;1.92;;;19.10;80.50;;;;;;5087490;28;20089;-56
2023/04/06 02:45:28;;;;;;;2.60;2.00;;;19.00;80.50;;;;;;5083046;28;20394;-56
2023/04/06 02:47:54;;;;;;;3.55;2.10;;;19.00;80.50;;;;;;5085111;28;20072;-56
2023/04/06 02:50:19;;;;;;;2.47;1.90;;;19.00;80.50;;;;;;5083201;28;20106;-56
2023/04/06 02:52:45;;;;;;;2.67;2.13;;;19.00;80.60;;;;;;5086965;28;20024;-56
2023/04/06 02:55:10;;;;;;;1.70;1.33;;;19.00;80.50;;;;;;5081213;28;20046;-56
2023/04/06 02:57:36;;;;;;;2.25;1.73;;;19.00;80.50;;;;;;5086709;28;20506;-57
2023/04/06 03:00:02;;;;;;;2.60;1.70;;;19.00;80.30;;;;;;5086775;28;20107;-56
2023/04/06 03:02:27;;;;;;;2.33;1.88;;;19.00;80.50;;;;;;5084324;28;20031;-56
2023/04/06 03:04:53;;;;;;;2.40;1.75;;;19.00;80.40;;;;;;5085175;28;20055;-56
2023/04/06 03:07:18;;;;;;;2.67;1.83;;;19.00;80.50;;;;;;5084638;28;20027;-56
2023/04/06 03:09:44;;;;;;;1.92;1.63;;;19.00;80.40;;;;;;5082389;28;20035;-56
2023/04/06 03:12:09;;;;;;;2.13;1.92;;;19.00;80.50;;;;;;5081088;28;20447;-56
2023/04/06 03:14:35;;;;;;;1.90;1.80;;;19.00;80.40;;;;;;5084468;28;20108;-56
2023/04/06 03:17:01;;;;;;;3.28;1.60;;;19.00;80.40;;;;;;5086518;28;20111;-57
2023/04/06 03:19:26;;;;;;;2.25;1.92;;;19.00;80.50;;;;;;5082461;28;20050;-57
2023/04/06 03:21:52;;;;;;;2.47;1.80;;;19.00;80.50;;;;;;5066523;28;20031;-56
2023/04/06 03:24:17;;;;;;;2.28;1.83;;;19.00;80.60;;;;;;5080852;28;20035;-56
2023/04/06 03:26:43;;;;;;;1.63;1.52;;;19.00;80.40;;;;;;5084260;28;20040;-56
2023/04/06 03:29:09;;;;;;;1.98;1.60;;;18.90;80.30;;;;;;5083797;28;20032;-56
2023/04/06 03:31:34;;;;;;;2.40;1.92;;;18.90;80.40;;;;;;5086273;28;20085;-56
2023/04/06 03:34:00;;;;;;;2.47;2.10;;;18.90;80.30;;;;;;5086174;28;20024;-56
2023/04/06 03:36:26;;;;;;;2.53;1.95;;;18.90;80.30;;;;;;5082458;28;20506;-56
2023/04/06 03:38:53;;;;;;;3.00;2.15;;;19.00;81.00;;;;;;5082216;28;20500;-56
2023/04/06 03:41:19;;;;;;;2.35;1.83;;;18.90;80.30;;;;;;5080575;28;20032;-56
2023/04/06 03:43:45;;;;;;;2.83;1.95;;;18.90;80.30;;;;;;5085844;28;20364;-56
2023/04/06 03:46:10;;;;;;;5.05;2.28;;;18.90;80.30;;;;;;5084192;28;20106;-56
2023/04/06 03:48:36;;;;;;;2.10;1.45;;;18.90;80.30;;;;;;5085711;28;20440;-56
2023/04/06 03:51:01;;;;;;;1.88;1.60;;;18.90;80.30;;;;;;5085794;28;20073;-54
2023/04/06 03:53:27;;;;;;;3.05;1.98;;;18.50;80.20;;;;;;5085283;28;20024;-56
2023/04/06 03:55:52;;;;;;;2.13;1.77;;;18.90;80.20;;;;;;5081360;28;20078;-56
2023/04/06 03:58:18;;;;;;;2.17;1.58;;;18.90;80.70;;;;;;5079919;28;20028;-56
2023/04/06 04:00:43;;;;;;;3.15;1.85;;;18.90;80.20;;;;;;5082093;28;20027;-56
2023/04/06 04:03:09;;;;;;;2.15;1.85;;;18.90;80.20;;;;;;5083572;28;20094;-56
2023/04/06 04:05:35;;;;;;;2.05;1.70;;;18.90;80.20;;;;;;5085175;28;20028;-56
2023/04/06 04:08:00;;;;;;;2.00;1.80;;;18.90;80.20;;;;;;5085863;28;20028;-56
2023/04/06 04:10:26;;;;;;;2.03;1.83;;;18.90;80.20;;;;;;5081576;28;20027;-57
2023/04/06 04:12:51;;;;;;;4.30;1.75;;;18.90;80.10;;;;;;5083060;28;20489;-57
2023/04/06 04:15:17;;;;;;;2.17;1.98;;;18.90;80.20;;;;;;5082455;28;20410;-56
2023/04/06 04:17:46;;;;;;;2.35;1.75;;;18.90;80.30;;;;;;5082288;28;20031;-56
2023/04/06 04:20:12;;;;;;;2.88;1.83;;;18.90;80.20;;;;;;5081917;28;20060;-56
2023/04/06 04:22:37;;;;;;;2.33;1.50;;;18.90;80.30;;;;;;5081327;28;20063;-56
2023/04/06 04:25:03;;;;;;;2.25;1.80;;;18.90;80.30;;;;;;5080052;28;21309;-56
2023/04/06 04:27:29;;;;;;;4.72;1.88;;;18.90;80.30;;;;;;5084679;28;20114;-56
2023/04/06 04:29:55;;;;;;;3.88;2.40;;;18.90;80.40;;;;;;5085520;28;20441;-56
2023/04/06 04:32:20;;;;;;;7.15;1.95;;;18.90;80.60;;;;;;5087821;28;20058;-56
2023/04/06 04:34:46;;;;;;;2.00;1.80;;;18.90;80.70;;;;;;5087488;28;20493;-55
2023/04/06 04:37:12;;;;;;;2.97;2.35;;;18.90;80.70;;;;;;5081616;28;20024;-56
2023/04/06 04:39:37;;;;;;;2.95;2.40;;;18.90;80.40;;;;;;5080276;28;20028;-56
2023/04/06 04:42:03;;;;;;;3.63;2.40;;;18.90;80.10;;;;;;5081596;28;20103;-56
2023/04/06 04:44:28;;;;;;;7.05;3.05;;;18.70;79.60;;;;;;5083921;28;20036;-55
2023/04/06 04:46:54;;;;;;;6.10;3.38;;;18.80;79.30;;;;;;5080717;28;20530;-55
2023/04/06 04:49:19;;;;;;;5.45;3.28;;;18.90;79.20;;;;;;5082119;28;20385;-56
2023/04/06 04:51:45;;;;;;;8.07;3.55;;;18.80;79.30;;;;;;5086369;28;20485;-56
2023/04/06 04:54:10;;;;;;;6.30;3.42;;;18.90;79.20;;;;;;5082892;28;20386;-56
2023/04/06 04:56:36;;;;;;;6.47;4.00;;;18.80;79.10;;;;;;5085489;28;20024;-56
2023/04/06 04:59:01;;;;;;;4.45;3.78;;;18.80;79.20;;;;;;5084514;28;20025;-56
2023/04/06 05:01:27;;;;;;;5.35;3.53;;;18.60;79.10;;;;;;5079815;28;20031;-56
2023/04/06 05:03:52;;;;;;;6.97;4.00;;;18.80;79.20;;;;;;5082399;28;20066;-56
2023/04/06 05:06:21;;;;;;;7.47;3.60;;;18.80;79.30;;;;;;5066751;28;20027;-56
2023/04/06 05:08:46;;;;;;;5.95;3.67;;;18.80;79.40;;;;;;5089553;28;20031;-56
2023/04/06 05:11:12;;;;;;;7.18;4.03;;;18.80;79.40;;;;;;5083806;28;20253;-56
2023/04/06 05:13:37;;;;;;;6.55;3.72;;;18.80;79.40;;;;;;5065346;28;20024;-55
2023/04/06 05:16:03;;;;;;;5.38;3.75;;;18.80;79.50;;;;;;5083232;28;20028;-56
2023/04/06 05:18:29;;;;;;;7.00;3.95;;;18.80;79.40;;;;;;5062505;28;20118;-56
2023/04/06 05:20:54;;;;;;;8.45;4.20;;;18.80;79.50;;;;;;5062230;28;20032;-56
2023/04/06 05:23:20;;;;;;;6.20;3.85;;;18.80;79.60;;;;;;5063710;28;20319;-56
2023/04/06 05:25:45;;;;;;;4.75;3.88;;;18.80;79.60;;;;;;5082898;28;20107;-55
2023/04/06 05:28:13;;;;;;;5.65;3.85;;;18.80;79.60;;;;;;5082950;28;20495;-56
2023/04/06 05:30:39;;;;;;;5.28;3.60;;;18.80;79.60;;;;;;5069172;28;20769;-56
2023/04/06 05:33:05;;;;;;;6.75;3.88;;;18.80;79.60;;;;;;5086175;28;20024;-56
2023/04/06 05:35:30;;;;;;;6.13;3.47;;;18.80;79.60;;;;;;5084088;28;20392;-56
2023/04/06 05:37:56;;;;;;;5.93;3.85;;;18.80;79.50;;;;;;5086083;28;20646;-56
2023/04/06 05:40:21;;;;;;;7.22;4.13;;;18.80;79.50;;;;;;5086066;28;20484;-55
2023/04/06 05:42:47;;;;;;;4.53;3.67;;;18.80;79.60;;;;;;5093627;28;20023;-55
2023/04/06 05:45:16;;;;;;;7.38;3.88;;;18.80;79.50;;;;;;5096578;28;20019;-55
2023/04/06 05:47:43;;;;;;;6.07;3.97;;;18.80;79.50;;;;;;5091807;28;20035;-56
2023/04/06 05:50:08;;;;;;;4.82;4.07;;;18.90;79.50;;;;;;5075056;28;20024;-56
2023/04/06 05:52:34;;;;;;;6.35;3.75;;;18.80;79.30;;;;;;5086234;28;20054;-55
2023/04/06 05:55:00;;;;;;;5.90;3.55;;;18.80;79.40;;;;;;5083480;28;20105;-56
2023/04/06 05:57:25;;;;;;;5.90;4.32;;;18.90;79.40;;;;;;5086406;28;20071;-56
2023/04/06 05:59:51;;;;;;;5.97;4.53;;;18.90;79.30;;;;;;5088102;28;20021;-55
2023/04/06 06:02:17;;;;;;;8.82;3.95;;;18.90;79.20;;;;;;5089573;28;20036;-55
2023/04/06 06:04:42;;;;;;;5.88;3.63;;;18.90;79.50;;;;;;5101979;28;20039;-56
2023/04/06 06:07:08;;;;;;;4.15;3.42;;;18.90;79.60;;;;;;5086778;28;20387;-56
2023/04/06 06:09:33;;;;;;;5.35;3.42;;;18.90;79.60;;;;;;5087734;28;20020;-56
2023/04/06 06:11:59;;;;;;;4.85;3.50;;;18.90;79.50;;;;;;5086387;28;20050;-55
2023/04/06 06:14:25;;;;;;;11.25;4.32;;;18.90;79.20;;;;;;5089018;28;20497;-55
2023/04/06 06:16:50;;;;;;;5.30;3.72;;;18.90;78.70;;;;;;5087355;28;20055;-55
2023/04/06 06:19:16;;;;;;;11.15;4.60;;;18.90;78.70;;;;;;5083616;28;20470;-57
2023/04/06 06:21:42;;;;;;;7.60;4.00;;;18.90;79.20;;;;;;5082667;28;20610;-56
2023/04/06 06:24:07;;;;;;;6.50;3.80;;;18.90;79.40;;;;;;5098412;28;20386;-57
2023/04/06 06:26:35;;;;;;;5.05;3.80;;;18.90;79.20;;;;;;5092347;28;20089;-56
2023/04/06 06:29:00;;;;;;;5.00;3.88;;;19.00;79.00;;;;;;5095413;28;20114;-56
2023/04/06 06:31:26;;;;;;;5.35;3.92;;;19.00;78.90;;;;;;5089218;28;20119;-56
2023/04/06 06:33:52;;;;;;;7.78;3.25;;;19.00;78.90;;;;;;5096591;28;20026;-57
2023/04/06 06:36:17;;;;;;;4.43;3.65;;;19.00;79.10;;;;;;5092866;28;20012;-57
2023/04/06 06:38:44;;;;;;;6.88;3.33;;;19.00;79.20;;;;;;5091731;28;20073;-57
2023/04/06 06:41:09;;;;;;;4.82;3.97;;;19.00;79.20;;;;;;5093179;28;20787;-57
2023/04/06 06:43:35;;;;;;;5.05;3.38;;;19.10;79.30;;;;;;5096187;28;20031;-58
2023/04/06 06:46:00;;;;;;;4.95;3.67;;;19.10;79.30;;;;;;5090365;28;20020;-57
2023/04/06 06:48:26;;;;;;;5.38;3.25;;;19.00;79.10;;;;;;5082783;28;20063;-57
2023/04/06 06:50:52;;;;;;;4.13;2.88;;;19.00;79.10;;;;;;5082384;28;20051;-58
2023/04/06 06:53:17;;;;;;;7.50;3.10;;;19.10;79.00;;;;;;5079963;28;20020;-56
2023/04/06 06:55:44;;;;;;;4.20;3.28;;;19.10;79.00;;;;;;5084537;28;20028;-57
2023/04/06 06:58:09;;;;;;;6.28;3.70;;;19.10;78.90;;;;;;5085694;28;20229;-56
2023/04/06 07:00:35;;;;;;;6.22;3.65;;;19.10;78.90;;;;;;5082375;28;20462;-56
2023/04/06 07:03:00;;;;;;;4.40;3.28;;;19.10;78.90;;;;;;5085128;28;20016;-56
2023/04/06 07:05:26;;;;;;;3.95;2.75;;;19.10;78.90;;;;;;5080848;28;20024;-56
2023/04/06 07:07:52;;;;;;;4.63;3.20;;;19.10;79.00;;;;;;5086753;28;20035;-56
2023/04/06 07:10:17;;;;;;;5.10;2.92;;;19.10;78.80;;;;;;5092591;28;20064;-56
2023/04/06 07:12:43;;;;;;;5.55;3.13;;;19.20;78.90;;;;;;5094528;28;20481;-56
2023/04/06 07:15:09;;;;;;;4.88;3.20;;;19.20;78.80;;;;;;5086338;28;20028;-56
2023/04/06 07:17:34;;;;;;;5.55;2.88;;;19.10;78.70;;;;;;5081325;28;20032;-56
2023/04/06 07:20:00;;;;;;;4.47;3.30;;;19.20;78.70;;;;;;5082074;28;20042;-56
2023/04/06 07:22:25;;;;;;;3.70;3.03;;;19.20;78.60;;;;;;5083895;28;20506;-56
2023/04/06 07:24:51;;;;;;;4.82;2.97;;;19.20;78.50;;;;;;5088457;28;20114;-56
2023/04/06 07:27:18;;;;;;;9.15;3.58;;;19.30;78.50;;;;;;5082838;28;20036;-56
2023/04/06 07:29:44;;;;;;;6.03;3.17;;;19.20;78.50;;;;;;5079801;28;20040;-56
2023/04/06 07:32:10;;;;;;;6.63;3.10;;;19.20;78.50;;;;;;5083776;28;20024;-56
2023/04/06 07:34:35;;;;;;;4.85;3.10;;;19.20;78.60;;;;;;5087503;28;20032;-56
2023/04/06 07:37:01;;;;;;;5.53;2.85;;;19.20;78.70;;;;;;5080357;28;20028;-55
2023/04/06 07:39:26;;;;;;;8.70;3.42;;;19.20;78.80;;;;;;5090400;28;20019;-56
2023/04/06 07:41:52;;;;;;;6.95;3.35;;;19.30;78.80;;;;;;5083496;28;20024;-56
2023/04/06 07:44:18;;;;;;;3.38;2.63;;;19.20;78.80;;;;;;5084627;28;20106;-56
2023/04/06 07:46:43;;;;;;;7.78;2.97;;;19.20;78.90;;;;;;5082798;28;20058;-56
2023/04/06 07:49:09;;;;;;;5.35;3.00;;;19.20;78.90;;;;;;5080957;28;20028;-56
2023/04/06 07:51:38;;;;;;;3.92;2.90;;;19.20;78.80;;;;;;5080436;28;20032;-57
2023/04/06 07:54:03;;;;;;;7.45;3.08;;;19.30;78.90;;;;;;5084825;28;20420;-56
2023/04/06 07:56:29;;;;;;;4.72;2.58;;;19.20;78.80;;;;;;5080320;28;20027;-57
2023/04/06 07:58:58;;;;;;;3.80;2.95;;;19.30;78.90;;;;;;5082248;28;20028;-56
2023/04/06 08:01:24;;;;;;;2.97;2.35;;;19.30;78.90;;;;;;5082263;28;20062;-56
2023/04/06 08:03:50;;;;;;;4.20;2.97;;;19.30;78.70;;;;;;5103430;28;20035;-57
2023/04/06 08:06:16;;;;;;;3.28;2.55;;;19.30;78.70;;;;;;5096243;28;20062;-57
2023/04/06 08:08:42;;;;;;;3.95;2.70;;;19.30;79.00;;;;;;5093848;28;20031;-57
2023/04/06 08:11:07;;;;;;;4.40;2.90;;;19.30;79.10;;;;;;5099474;28;20482;-57
2023/04/06 08:13:33;;;;;;;4.68;2.90;;;19.30;78.90;;;;;;5090194;28;20024;-56
2023/04/06 08:16:00;;;;;;;3.63;2.55;;;19.30;78.80;;;;;;5087211;28;20032;-56
2023/04/06 08:18:25;;;;;;;6.13;2.97;;;19.30;78.80;;;;;;5096211;28;20186;-57
2023/04/06 08:20:51;;;;;;;5.53;2.97;;;19.40;78.90;;;;;;5083244;28;20027;-57
2023/04/06 08:23:17;;;;;;;5.32;2.97;;;19.40;78.80;;;;;;5079521;28;20122;-56
2023/04/06 08:25:42;;;;;;;5.35;2.53;;;19.30;78.60;;;;;;5088964;28;20028;-56
2023/04/06 08:28:09;;;;;;;7.35;3.00;;;19.40;78.40;;;;;;5085515;28;20100;-56
2023/04/06 08:30:35;;;;;;;5.75;2.90;;;19.40;78.20;;;;;;5086260;28;20040;-56
2023/04/06 08:33:00;;;;;;;3.28;2.50;;;19.40;78.70;;;;;;5081717;28;20036;-57
2023/04/06 08:35:26;;;;;;;6.30;2.90;;;19.40;77.90;;;;;;5080886;28;20092;-56
2023/04/06 08:37:52;;;;;;;4.03;2.63;;;19.40;78.00;;;;;;5082942;28;20082;-57
2023/04/06 08:40:18;;;;;;;7.97;2.95;;;19.40;77.90;;;;;;5076724;28;20119;-56
2023/04/06 08:42:50;;;;;;;3.90;2.50;;;19.40;77.80;;;;;;5084048;28;20024;-56
2023/04/06 08:45:16;;;;;;;7.05;2.92;;;19.40;77.60;;;;;;5086866;28;20024;-56
2023/04/06 08:47:41;;;;;;;3.75;2.65;;;19.40;77.60;;;;;;5099027;28;20139;-57
2023/04/06 08:50:08;;;;;;;4.78;3.00;;;19.40;77.50;;;;;;5094257;28;20020;-57
2023/04/06 08:52:33;;;;;;;4.00;2.35;;;19.40;77.40;;;;;;5092939;28;20052;-56
2023/04/06 08:54:59;;;;;;;4.50;3.28;;;19.40;77.20;;;;;;5083900;28;20024;-57
2023/04/06 08:57:25;;;;;;;3.05;2.55;;;19.40;76.90;;;;;;5080291;28;20117;-56
2023/04/06 08:59:51;;;;;;;5.88;2.70;;;19.40;76.60;;;;;;5083786;28;20481;-57
2023/04/06 09:02:18;;;;;;;4.63;2.63;;;19.50;76.50;;;;;;5089491;28;20466;-56
2023/04/06 09:04:44;;;;;;;3.08;2.58;;;19.50;76.20;;;;;;5091998;28;20114;-56
2023/04/06 09:07:10;;;;;;;4.82;2.80;;;19.50;76.10;;;;;;5064109;28;20740;-56
2023/04/06 09:09:35;;;;;;;8.50;3.42;;;19.40;75.70;;;;;;5083646;28;20490;-56
2023/04/06 09:12:05;;;;;;;2.72;2.28;;;19.40;75.50;;;;;;5087632;28;20016;-56
2023/04/06 09:14:37;;;;;;;6.10;3.00;;;19.50;75.50;;;;;;5069395;28;20023;-57
2023/04/06 09:17:03;;;;;;;4.40;2.72;;;19.50;75.30;;;;;;5081948;28;20501;-57
2023/04/06 09:19:28;;;;;;;4.97;2.95;;;19.50;75.00;;;;;;5082185;28;20032;-57
2023/04/06 09:22:04;;;;;;;3.80;2.30;;;19.50;74.80;;;;;;5088937;28;20722;-57
2023/04/06 09:24:42;;;;;;;4.95;3.08;;;19.50;74.60;;;;;;5078171;28;20111;-56
2023/04/06 09:27:08;;;;;;;4.15;2.33;;;19.60;74.40;;;;;;5081847;28;20052;-57
2023/04/06 09:29:34;;;;;;;2.78;2.50;;;19.60;74.20;;;;;;5086758;28;20668;-56
2023/04/06 09:32:04;;;;;;;3.88;2.60;;;19.60;74.00;;;;;;5091192;28;20428;-56
2023/04/06 09:34:30;;;;;;;3.60;2.50;;;19.60;73.90;;;;;;5089634;28;20103;-56
2023/04/06 09:36:55;;;;;;;2.92;2.10;;;19.60;73.70;;;;;;5082510;28;20163;-56
2023/04/06 09:39:22;;;;;;;4.10;2.33;;;19.60;73.50;;;;;;5085760;28;20374;-57
2023/04/06 09:41:50;;;;;;;7.07;2.80;;;19.60;73.50;;;;;;5086115;28;20084;-58
2023/04/06 09:44:15;;;;;;;3.30;2.58;;;19.60;73.20;;;;;;5086922;28;20071;-57
2023/04/06 09:46:43;;;;;;;3.80;2.88;;;19.70;73.10;;;;;;5084261;28;20092;-57
2023/04/06 09:49:10;;;;;;;3.13;2.45;;;19.60;72.90;;;;;;5084644;28;20035;-57
2023/04/06 09:51:40;;;;;;;4.28;2.70;;;19.70;72.90;;;;;;5084715;28;20020;-57
2023/04/06 09:54:06;;;;;;;4.60;2.25;;;19.60;72.80;;;;;;5091879;28;20027;-57
2023/04/06 09:56:37;;;;;;;6.50;2.80;;;19.70;72.60;;;;;;5088398;28;20039;-59
2023/04/06 09:59:07;;;;;;;4.10;2.58;;;19.70;72.50;;;;;;5063769;28;20082;-57
2023/04/06 10:01:33;;;;;;;3.10;2.35;;;19.70;72.40;;;;;;5065305;28;20037;-58
2023/04/06 10:04:17;;;;;;;2.42;2.05;;;19.70;72.60;;;;;;5088718;28;20115;-56
2023/04/06 10:06:43;;;;;;;4.23;2.47;;;19.70;72.40;;;;;;5078502;28;20027;-57
2023/04/06 10:09:09;;;;;;;5.85;2.30;;;19.70;72.30;;;;;;5066422;28;20538;-57
2023/04/06 10:11:35;;;;;;;4.85;2.33;;;19.70;72.30;;;;;;5073880;28;20099;-57
2023/04/06 10:14:00;;;;;;;4.07;2.28;;;19.70;72.30;;;;;;5084697;28;20099;-57
2023/04/06 10:16:27;;;;;;;3.25;2.30;;;19.70;72.10;;;;;;5068149;28;20020;-57
2023/04/06 10:18:56;;;;;;;2.70;2.22;;;19.70;72.00;;;;;;5084997;28;20609;-57
2023/04/06 10:21:25;;;;;;;4.50;2.25;;;19.70;72.10;;;;;;5050812;28;20508;-57
2023/04/06 10:23:52;;;;;;;4.28;2.53;;;19.70;71.80;;;;;;5079647;28;20386;-57
2023/04/06 10:26:20;;;;;;;3.65;2.40;;;19.70;71.60;;;;;;5085469;28;20028;-58
2023/04/06 10:28:46;;;;;;;5.45;2.47;;;19.70;71.60;;;;;;5046775;28;20079;-58
2023/04/06 10:31:12;;;;;;;3.15;2.25;;;19.70;71.40;;;;;;5047075;28;20025;-58
2023/04/06 10:33:38;;;;;;;2.28;1.83;;;19.70;71.30;;;;;;5050676;28;20013;-58
2023/04/06 10:36:14;;;;;;;3.60;2.47;;;19.70;71.20;;;;;;5041861;28;20036;-58
2023/04/06 10:38:40;;;;;;;7.28;2.60;;;19.70;71.20;;;;;;5039361;28;20132;-58
2023/04/06 10:41:06;;;;;;;2.95;2.33;;;19.70;70.90;;;;;;5043491;28;20111;-58
2023/04/06 10:43:36;;;;;;;2.15;1.95;;;19.80;71.10;;;;;;5051977;28;20036;-57
2023/04/06 10:46:02;;;;;;;2.15;1.90;;;19.70;71.00;;;;;;5049069;28;20030;-57
2023/04/06 10:48:45;;;;;;;2.50;2.03;;;19.70;71.20;;;;;;5051100;28;20538;-57
2023/04/06 10:51:14;;;;;;;2.80;2.00;;;19.80;71.20;;;;;;5048200;28;20017;-58
2023/04/06 10:53:42;;;;;;;3.53;1.98;;;19.80;71.20;;;;;;5043689;28;20156;-57
2023/04/06 10:56:12;;;;;;;2.95;2.00;;;19.80;71.30;;;;;;5042296;28;20036;-58
2023/04/06 10:58:37;;;;;;;2.38;1.80;;;19.80;71.30;;;;;;5043275;28;20079;-58
2023/04/06 11:01:03;;;;;;;2.17;1.70;;;19.80;71.20;;;;;;5044084;28;20416;-57
2023/04/06 11:03:29;;;;;;;2.47;1.98;;;19.80;71.30;;;;;;5047240;28;20029;-58
2023/04/06 11:05:54;;;;;;;1.92;1.73;;;19.80;71.20;;;;;;5046641;28;20056;-58
2023/04/06 11:08:30;;;;;;;4.30;1.88;;;19.80;71.30;;;;;;5045229;28;20021;-58
2023/04/06 11:11:09;;;;;;;3.22;2.03;;;19.90;71.30;;;;;;5046538;28;20067;-58
2023/04/06 11:13:51;;;;;;;3.20;1.70;;;19.90;71.30;;;;;;5062694;28;20029;-58
2023/04/06 11:16:21;;;;;;;2.97;1.73;;;19.90;71.40;;;;;;5050997;28;20056;-58
2023/04/06 11:18:54;;;;;;;3.47;2.05;;;19.90;71.40;;;;;;5061214;28;20036;-58
2023/04/06 11:21:30;;;;;;;2.25;1.90;;;19.90;71.30;;;;;;5054255;28;20074;-58
2023/04/06 11:24:12;;;;;;;3.38;2.20;;;19.90;71.00;;;;;;5043131;28;20036;-58
2023/04/06 11:26:38;;;;;;;3.30;2.35;;;19.90;70.90;;;;;;5051362;28;20033;-58
2023/04/06 11:29:04;;;;;;;5.28;1.98;;;19.90;70.70;;;;;;5082705;28;20032;-59
2023/04/06 11:31:30;;;;;;;3.88;2.45;;;19.90;70.50;;;;;;5078320;28;20032;-57
2023/04/06 11:33:57;;;;;;;3.80;2.20;;;19.90;70.30;;;;;;5086237;28;20020;-58
2023/04/06 11:36:22;;;;;;;3.40;2.45;;;19.90;70.30;;;;;;5085856;28;20045;-58
2023/04/06 11:38:48;;;;;;;4.60;2.47;;;19.90;70.10;;;;;;5080214;28;20032;-58
2023/04/06 11:41:13;;;;;;;5.00;3.00;;;19.90;70.00;;;;;;5081589;28;20024;-58
2023/04/06 11:43:39;;;;;;;4.15;2.70;;;19.90;69.80;;;;;;5085561;28;20028;-58
2023/04/06 11:46:06;;;;;;;2.67;1.98;;;19.90;69.70;;;;;;5062696;28;20028;-58
2023/04/06 11:48:32;;;;;;;2.15;1.92;;;19.90;69.60;;;;;;5097007;28;20482;-58
2023/04/06 11:50:58;;;;;;;3.65;2.67;;;19.90;69.60;;;;;;5086501;28;20020;-57
2023/04/06 11:53:24;;;;;;;4.00;2.45;;;19.90;69.70;;;;;;5074782;28;20020;-57
2023/04/06 11:55:50;;;;;;;2.80;1.98;;;19.90;69.80;;;;;;5079768;28;20115;-57
2023/04/06 11:58:15;;;;;;;5.22;2.35;;;19.90;70.10;;;;;;5074137;28;20099;-57
2023/04/06 12:00:44;;;;;;;2.88;2.10;;;19.80;70.30;;;;;;5074274;28;20036;-57
2023/04/06 12:03:13;;;;;;;3.80;2.35;;;19.90;70.40;;;;;;5092216;28;20098;-58
2023/04/06 12:05:39;;;;;;;2.90;1.80;;;19.90;70.50;;;;;;5088980;28;20024;-58
2023/04/06 12:08:05;;;;;;;3.00;1.85;;;19.90;70.70;;;;;;5086909;28;20509;-58
2023/04/06 12:10:30;;;;;;;2.42;1.85;;;19.90;70.90;;;;;;5086279;28;20031;-58
2023/04/06 12:12:56;;;;;;;3.50;1.77;;;19.90;71.00;;;;;;5085016;28;20384;-58
2023/04/06 12:15:21;;;;;;;2.17;1.55;;;19.90;71.20;;;;;;5084763;28;20699;-58
2023/04/06 12:17:47;;;;;;;2.58;1.60;;;19.90;71.30;;;;;;5082238;28;20016;-58
2023/04/06 12:20:13;;;;;;;2.55;1.70;;;19.90;71.50;;;;;;5095848;28;20662;-58
2023/04/06 12:22:42;;;;;;;1.63;1.38;;;19.90;71.50;;;;;;5079529;28;20031;-58
2023/04/06 12:25:08;;;;;;;1.63;1.42;;;19.90;71.60;;;;;;5070405;28;20118;-58
2023/04/06 12:27:34;;;;;;;3.55;1.92;;;19.90;71.60;;;;;;5072277;28;20582;-58
2023/04/06 12:29:59;;;;;;;3.47;1.60;;;19.90;71.70;;;;;;5076201;28;20043;-58
2023/04/06 12:32:25;;;;;;;3.60;1.75;;;19.90;71.80;;;;;;5092265;28;20023;-58
2023/04/06 12:34:54;;;;;;;1.98;1.45;;;19.90;71.90;;;;;;5104022;28;20109;-58
2023/04/06 12:37:20;;;;;;;2.65;1.60;;;19.90;71.90;;;;;;5103740;28;20394;-58
2023/04/06 12:39:45;;;;;;;3.33;1.75;;;19.90;71.90;;;;;;5104949;28;20031;-58
2023/04/06 12:42:12;;;;;;;1.88;1.67;;;19.90;71.90;;;;;;5091780;28;20028;-58
2023/04/06 12:44:38;;;;;;;2.22;1.65;;;19.90;72.50;;;;;;5083374;28;20036;-58